Grand Strand Airport North Myrtle Beach US
ICAO: KCRE
IATA: CRE
Category: Medium
Scheduled Services: No

Elevation: 32 ft
TransAlt. 18000 ft.

Airport Communications:
MYRTLE BEACH APP/DEP:119.2
ATIS:119.625
CTAF:124.6
STRAND GND:121.8
ANDERSON RDO:123.6
STRAND TWR:124.6
UNICOM:122.95

KCRE Zoom In..

Runways:

(A) RW 05 length 5997 ft width 100 ft
---- / hdg 54

(B) RW 23 length 5997 ft width 100 ft
ILS 111.70 / hdg 234

Location; KCRE
Day. 29 / Time. 02.53 Zulu
* Altimeter: 30.09
* Temperature: 25° c. 77°f.
* Wind from: 200° Speed 11 kn.
Dewpoint: 24° c.
Visibility: 10 Statute Miles.
Clouds: Clear (automated report).

KCRE 290253Z AUTO 20011KT 10SM CLR 25/24 A3009 RMK AO1 SLP190 T02500239 53012


Wind From 200°
Speed 11 kn.

 
 
jpsmedia worldairports.se 2020   terms of use